<?xml version="1.0" encoding="UTF-8"?>
<gpx version="1.1" creator="2bulu-scraper" xmlns="http://www.topografix.com/GPX/1/1">
  <metadata><name>泸州江阳方山</name><desc>source: 2bulu.com trackId=76762463; exported 2026-09-01T14:25:53.276Z</desc>
    <bounds minlat="28.8210621" minlon="105.29021" maxlat="28.8329979" maxlon="105.3057678"/>
    <link href="https://www.2bulu.com/track/t-YAmE8Qg8cEXp%252FR2KBg5Tzw%253D%253D.htm"><text>2bulu 源页面</text></link>
  </metadata>
  <wpt lat="28.8329017" lon="105.29021"><ele>273</ele><name>
        </name></wpt>
  <wpt lat="28.8322718" lon="105.2910783"><ele>289</ele><name>
        </name></wpt>
  <wpt lat="28.8324108" lon="105.2914776"><ele>292</ele><name>
        </name></wpt>
  <wpt lat="28.8324442" lon="105.2922112"><ele>307</ele><name>
        </name></wpt>
  <wpt lat="28.8327721" lon="105.2928903"><ele>308</ele><name>
        </name></wpt>
  <wpt lat="28.8326442" lon="105.2931767"><ele>319</ele><name>
        </name></wpt>
  <wpt lat="28.8325435" lon="105.2932191"><ele>323</ele><name>
        </name></wpt>
  <wpt lat="28.8325435" lon="105.2932191"><ele>323</ele><name>
        </name></wpt>
  <wpt lat="28.8324551" lon="105.2936467"><ele>331</ele><name>
        </name></wpt>
  <wpt lat="28.8325802" lon="105.2939192"><ele>336</ele><name>
        </name></wpt>
  <wpt lat="28.8325901" lon="105.2945444"><ele>339</ele><name>
        </name></wpt>
  <wpt lat="28.832511" lon="105.2945937"><ele>344</ele><name>
        </name></wpt>
  <wpt lat="28.8324401" lon="105.2946588"><ele>346</ele><name>
        </name></wpt>
  <wpt lat="28.8323631" lon="105.2947262"><ele>344</ele><name>
        </name></wpt>
  <wpt lat="28.8317535" lon="105.2950704"><ele>376</ele><name>
        </name></wpt>
  <wpt lat="28.8312515" lon="105.2952459"><ele>394</ele><name>
        </name></wpt>
  <wpt lat="28.8308428" lon="105.2954652"><ele>408</ele><name>
        </name></wpt>
  <wpt lat="28.8308428" lon="105.2954652"><ele>408</ele><name>
        </name></wpt>
  <wpt lat="28.8311452" lon="105.2957471"><ele>421</ele><name>
        </name></wpt>
  <wpt lat="28.8310756" lon="105.2959367"><ele>434</ele><name>
        </name></wpt>
  <wpt lat="28.83112" lon="105.2966599"><ele>459</ele><name>
        </name></wpt>
  <wpt lat="28.83112" lon="105.2966599"><ele>459</ele><name>
        </name></wpt>
  <wpt lat="28.83125" lon="105.2968267"><ele>467</ele><name>
        </name></wpt>
  <wpt lat="28.8315076" lon="105.297289"><ele>479</ele><name>
        </name></wpt>
  <wpt lat="28.83155" lon="105.29769"><ele>509</ele><name>
        </name></wpt>
  <wpt lat="28.8313383" lon="105.29793"><ele>532</ele><name>
        </name></wpt>
  <wpt lat="28.83131" lon="105.2980883"><ele>533</ele><name>
        </name></wpt>
  <wpt lat="28.8312183" lon="105.298745"><ele>551</ele><name>
        </name></wpt>
  <wpt lat="28.8307473" lon="105.2991243"><ele>564</ele><name>
        </name></wpt>
  <wpt lat="28.8303254" lon="105.300051"><ele>566</ele><name>
        </name></wpt>
  <wpt lat="28.8298826" lon="105.3006523"><ele>572</ele><name>
        </name></wpt>
  <wpt lat="28.828374" lon="105.3018821"><ele>576</ele><name>
        </name></wpt>
  <wpt lat="28.827504" lon="105.3027965"><ele>582</ele><name>
        </name></wpt>
  <wpt lat="28.8257862" lon="105.3043335"><ele>586</ele><name>
        </name></wpt>
  <wpt lat="28.8234186" lon="105.3052743"><ele>576</ele><name>
        </name></wpt>
  <wpt lat="28.8215133" lon="105.3045682"><ele>567</ele><name>
        </name></wpt>
  <wpt lat="28.821764" lon="105.3022582"><ele>514</ele><name>
        </name></wpt>
  <wpt lat="28.8218631" lon="105.3018445"><ele>516</ele><name>
        </name></wpt>
  <wpt lat="28.8221997" lon="105.3014858"><ele>508</ele><name>
        </name></wpt>
  <wpt lat="28.8227666" lon="105.3000109"><ele>495</ele><name>
        </name></wpt>
  <wpt lat="28.8230955" lon="105.2982746"><ele>465</ele><name>
        </name></wpt>
  <wpt lat="28.8232736" lon="105.2982287"><ele>459</ele><name>
        </name></wpt>
  <wpt lat="28.8240188" lon="105.2998308"><ele>442</ele><name>
        </name></wpt>
  <wpt lat="28.8246616" lon="105.2992679"><ele>449</ele><name>
        </name></wpt>
  <wpt lat="28.8248639" lon="105.2990156"><ele>452</ele><name>
        </name></wpt>
  <wpt lat="28.8258522" lon="105.2988407"><ele>442</ele><name>
        </name></wpt>
  <wpt lat="28.8262247" lon="105.2989533"><ele>445</ele><name>
        </name></wpt>
  <wpt lat="28.8266937" lon="105.298877"><ele>448</ele><name>
        </name></wpt>
  <wpt lat="28.826979" lon="105.2987758"><ele>446</ele><name>
        </name></wpt>
  <wpt lat="28.8270764" lon="105.2987639"><ele>447</ele><name>
        </name></wpt>
  <wpt lat="28.8274499" lon="105.298749"><ele>446</ele><name>
        </name></wpt>
  <wpt lat="28.8275431" lon="105.2987251"><ele>451</ele><name>
        </name></wpt>
  <wpt lat="28.8277012" lon="105.2988134"><ele>448</ele><name>
        </name></wpt>
  <wpt lat="28.8278873" lon="105.2990929"><ele>445</ele><name>
        </name></wpt>
  <wpt lat="28.8293033" lon="105.2982707"><ele>440</ele><name>
        </name></wpt>
  <wpt lat="28.8327175" lon="105.2939914"><ele>344</ele><name>
        </name></wpt>
  <trk><name>泸州江阳方山</name>
      <trkseg>
        <trkpt lat="28.8329017" lon="105.29021"><ele>273</ele><time>2025-12-26T21:30:24.000Z</time></trkpt>
        <trkpt lat="28.8328724" lon="105.2903015"><ele>273</ele><time>2025-12-26T21:30:52.000Z</time></trkpt>
        <trkpt lat="28.832881" lon="105.2904046"><ele>273.43</ele><time>2025-12-26T21:31:02.000Z</time></trkpt>
        <trkpt lat="28.8328974" lon="105.2905165"><ele>273.2</ele><time>2025-12-26T21:31:12.000Z</time></trkpt>
        <trkpt lat="28.8329223" lon="105.2906305"><ele>273.59</ele><time>2025-12-26T21:31:24.000Z</time></trkpt>
        <trkpt lat="28.8329043" lon="105.2907324"><ele>275.53</ele><time>2025-12-26T21:31:36.000Z</time></trkpt>
        <trkpt lat="28.8328359" lon="105.2907925"><ele>278.1</ele><time>2025-12-26T21:31:46.000Z</time></trkpt>
        <trkpt lat="28.8327308" lon="105.290815"><ele>281.2</ele><time>2025-12-26T21:31:56.000Z</time></trkpt>
        <trkpt lat="28.8326285" lon="105.2908323"><ele>284.04</ele><time>2025-12-26T21:32:08.000Z</time></trkpt>
        <trkpt lat="28.832525" lon="105.2908611"><ele>287.2</ele><time>2025-12-26T21:32:18.000Z</time></trkpt>
        <trkpt lat="28.8324268" lon="105.2909061"><ele>288.66</ele><time>2025-12-26T21:32:28.000Z</time></trkpt>
        <trkpt lat="28.8323479" lon="105.2909662"><ele>289.33</ele><time>2025-12-26T21:32:34.000Z</time></trkpt>
        <trkpt lat="28.8322801" lon="105.2910488"><ele>289.4</ele><time>2025-12-26T21:32:44.000Z</time></trkpt>
        <trkpt lat="28.8322718" lon="105.2910783"><ele>289.44</ele><time>2025-12-26T21:32:52.000Z</time></trkpt>
        <trkpt lat="28.8323105" lon="105.2911617"><ele>289.25</ele><time>2025-12-26T21:33:32.000Z</time></trkpt>
        <trkpt lat="28.8323324" lon="105.2912704"><ele>289.01</ele><time>2025-12-26T21:33:46.000Z</time></trkpt>
        <trkpt lat="28.8323574" lon="105.291379"><ele>289.31</ele><time>2025-12-26T21:33:58.000Z</time></trkpt>
        <trkpt lat="28.8324108" lon="105.2914776"><ele>290.17</ele><time>2025-12-26T21:34:10.000Z</time></trkpt>
        <trkpt lat="28.8324736" lon="105.2915712"><ele>290.95</ele><time>2025-12-26T21:34:26.000Z</time></trkpt>
        <trkpt lat="28.8325452" lon="105.2916517"><ele>292.18</ele><time>2025-12-26T21:34:38.000Z</time></trkpt>
        <trkpt lat="28.8326348" lon="105.291725"><ele>293.39</ele><time>2025-12-26T21:34:52.000Z</time></trkpt>
        <trkpt lat="28.8327132" lon="105.2917916"><ele>294.43</ele><time>2025-12-26T21:35:02.000Z</time></trkpt>
        <trkpt lat="28.8327847" lon="105.2918565"><ele>295.1</ele><time>2025-12-26T21:35:18.000Z</time></trkpt>
        <trkpt lat="28.8328095" lon="105.2919592"><ele>297.64</ele><time>2025-12-26T21:35:30.000Z</time></trkpt>
        <trkpt lat="28.8327824" lon="105.2920749"><ele>300.07</ele><time>2025-12-26T21:35:44.000Z</time></trkpt>
        <trkpt lat="28.8327428" lon="105.2921811"><ele>302.54</ele><time>2025-12-26T21:35:54.000Z</time></trkpt>
        <trkpt lat="28.8326541" lon="105.2922359"><ele>304.07</ele><time>2025-12-26T21:36:12.000Z</time></trkpt>
        <trkpt lat="28.832554" lon="105.2922201"><ele>305.42</ele><time>2025-12-26T21:36:24.000Z</time></trkpt>
        <trkpt lat="28.8324442" lon="105.2922112"><ele>306.14</ele><time>2025-12-26T21:36:34.000Z</time></trkpt>
        <trkpt lat="28.8323448" lon="105.2922327"><ele>306.42</ele><time>2025-12-26T21:36:46.000Z</time></trkpt>
        <trkpt lat="28.832304" lon="105.2923152"><ele>307.66</ele><time>2025-12-26T21:36:58.000Z</time></trkpt>
        <trkpt lat="28.8323602" lon="105.2923884"><ele>308.75</ele><time>2025-12-26T21:37:14.000Z</time></trkpt>
        <trkpt lat="28.8324301" lon="105.2924746"><ele>310.54</ele><time>2025-12-26T21:37:24.000Z</time></trkpt>
        <trkpt lat="28.8324994" lon="105.2925705"><ele>312.03</ele><time>2025-12-26T21:37:44.000Z</time></trkpt>
        <trkpt lat="28.8325704" lon="105.292656"><ele>312.75</ele><time>2025-12-26T21:37:52.000Z</time></trkpt>
        <trkpt lat="28.8326309" lon="105.2927513"><ele>312.17</ele><time>2025-12-26T21:38:10.000Z</time></trkpt>
        <trkpt lat="28.8327063" lon="105.2928177"><ele>309.77</ele><time>2025-12-26T21:38:24.000Z</time></trkpt>
        <trkpt lat="28.8327721" lon="105.2928903"><ele>308.75</ele><time>2025-12-26T21:38:38.000Z</time></trkpt>
        <trkpt lat="28.8328183" lon="105.2929803"><ele>308.34</ele><time>2025-12-26T21:38:52.000Z</time></trkpt>
        <trkpt lat="28.8328262" lon="105.2930832"><ele>309.31</ele><time>2025-12-26T21:39:04.000Z</time></trkpt>
        <trkpt lat="28.8327536" lon="105.2931513"><ele>310.47</ele><time>2025-12-26T21:39:16.000Z</time></trkpt>
        <trkpt lat="28.8326442" lon="105.2931767"><ele>312.33</ele><time>2025-12-26T21:39:30.000Z</time></trkpt>
        <trkpt lat="28.8325435" lon="105.2932191"><ele>315.07</ele><time>2025-12-26T21:39:46.000Z</time></trkpt>
        <trkpt lat="28.8324824" lon="105.2933058"><ele>318.57</ele><time>2025-12-26T21:40:02.000Z</time></trkpt>
        <trkpt lat="28.832458" lon="105.2934132"><ele>321.85</ele><time>2025-12-26T21:40:14.000Z</time></trkpt>
        <trkpt lat="28.8324499" lon="105.2935311"><ele>324.19</ele><time>2025-12-26T21:40:26.000Z</time></trkpt>
        <trkpt lat="28.8324551" lon="105.2936467"><ele>326.48</ele><time>2025-12-26T21:40:36.000Z</time></trkpt>
        <trkpt lat="28.8324805" lon="105.2937236"><ele>328.42</ele><time>2025-12-26T21:40:50.000Z</time></trkpt>
        <trkpt lat="28.8325264" lon="105.293818"><ele>329.92</ele><time>2025-12-26T21:41:08.000Z</time></trkpt>
        <trkpt lat="28.8325802" lon="105.2939192"><ele>332.02</ele><time>2025-12-26T21:41:20.000Z</time></trkpt>
        <trkpt lat="28.8326321" lon="105.2940166"><ele>333.69</ele><time>2025-12-26T21:41:38.000Z</time></trkpt>
        <trkpt lat="28.8326403" lon="105.294126"><ele>334.64</ele><time>2025-12-26T21:41:50.000Z</time></trkpt>
        <trkpt lat="28.8326244" lon="105.2942348"><ele>335.35</ele><time>2025-12-26T21:42:06.000Z</time></trkpt>
        <trkpt lat="28.8326254" lon="105.2943451"><ele>336.32</ele><time>2025-12-26T21:42:20.000Z</time></trkpt>
        <trkpt lat="28.8326274" lon="105.2944507"><ele>336.74</ele><time>2025-12-26T21:42:30.000Z</time></trkpt>
        <trkpt lat="28.8325901" lon="105.2945444"><ele>336.98</ele><time>2025-12-26T21:42:44.000Z</time></trkpt>
        <trkpt lat="28.832511" lon="105.2945937"><ele>337.85</ele><time>2025-12-26T21:43:08.000Z</time></trkpt>
        <trkpt lat="28.8324401" lon="105.2946588"><ele>340.54</ele><time>2025-12-26T21:43:50.000Z</time></trkpt>
        <trkpt lat="28.8323631" lon="105.2947262"><ele>342.93</ele><time>2025-12-26T21:44:06.000Z</time></trkpt>
        <trkpt lat="28.8322854" lon="105.2948139"><ele>343.3</ele><time>2025-12-26T21:44:30.000Z</time></trkpt>
        <trkpt lat="28.8322059" lon="105.2948892"><ele>345.58</ele><time>2025-12-26T21:44:50.000Z</time></trkpt>
        <trkpt lat="28.8321314" lon="105.2949652"><ele>348.08</ele><time>2025-12-26T21:45:12.000Z</time></trkpt>
        <trkpt lat="28.8320453" lon="105.2950053"><ele>351.62</ele><time>2025-12-26T21:45:28.000Z</time></trkpt>
        <trkpt lat="28.83195" lon="105.2950386"><ele>356.08</ele><time>2025-12-26T21:45:48.000Z</time></trkpt>
        <trkpt lat="28.8318482" lon="105.2950576"><ele>361.6</ele><time>2025-12-26T21:46:06.000Z</time></trkpt>
        <trkpt lat="28.8317535" lon="105.2950704"><ele>365.9</ele><time>2025-12-26T21:46:28.000Z</time></trkpt>
        <trkpt lat="28.8316633" lon="105.295025"><ele>370.33</ele><time>2025-12-26T21:48:08.000Z</time></trkpt>
        <trkpt lat="28.8315683" lon="105.295025"><ele>374.75</ele><time>2025-12-26T21:48:20.000Z</time></trkpt>
        <trkpt lat="28.8314818" lon="105.2950715"><ele>377.82</ele><time>2025-12-26T21:48:40.000Z</time></trkpt>
        <trkpt lat="28.831389" lon="105.2951083"><ele>380.18</ele><time>2025-12-26T21:48:58.000Z</time></trkpt>
        <trkpt lat="28.8313044" lon="105.2951586"><ele>383.03</ele><time>2025-12-26T21:49:26.000Z</time></trkpt>
        <trkpt lat="28.8312515" lon="105.2952459"><ele>386.67</ele><time>2025-12-26T21:49:44.000Z</time></trkpt>
        <trkpt lat="28.831205" lon="105.29534"><ele>389.87</ele><time>2025-12-26T21:50:54.000Z</time></trkpt>
        <trkpt lat="28.8311183" lon="105.29538"><ele>397.88</ele><time>2025-12-26T21:51:06.000Z</time></trkpt>
        <trkpt lat="28.831026" lon="105.2954087"><ele>403.01</ele><time>2025-12-26T21:51:20.000Z</time></trkpt>
        <trkpt lat="28.8309327" lon="105.2954354"><ele>405.07</ele><time>2025-12-26T21:51:34.000Z</time></trkpt>
        <trkpt lat="28.8308428" lon="105.2954652"><ele>406.16</ele><time>2025-12-26T21:51:48.000Z</time></trkpt>
        <trkpt lat="28.8307967" lon="105.2955567"><ele>407.12</ele><time>2025-12-26T21:55:08.000Z</time></trkpt>
        <trkpt lat="28.830895" lon="105.295585"><ele>405.52</ele><time>2025-12-26T21:55:24.000Z</time></trkpt>
        <trkpt lat="28.8309806" lon="105.2956345"><ele>405.21</ele><time>2025-12-26T21:55:42.000Z</time></trkpt>
        <trkpt lat="28.8310705" lon="105.2956839"><ele>406.45</ele><time>2025-12-26T21:55:58.000Z</time></trkpt>
        <trkpt lat="28.8311452" lon="105.2957471"><ele>409.61</ele><time>2025-12-26T21:56:14.000Z</time></trkpt>
        <trkpt lat="28.8311271" lon="105.2958401"><ele>414.3</ele><time>2025-12-26T21:56:48.000Z</time></trkpt>
        <trkpt lat="28.8310756" lon="105.2959367"><ele>420.45</ele><time>2025-12-26T21:57:18.000Z</time></trkpt>
        <trkpt lat="28.8310551" lon="105.2960426"><ele>426.15</ele><time>2025-12-26T21:57:40.000Z</time></trkpt>
        <trkpt lat="28.8310682" lon="105.2961554"><ele>431.2</ele><time>2025-12-26T21:58:00.000Z</time></trkpt>
        <trkpt lat="28.8310983" lon="105.2962633"><ele>435.85</ele><time>2025-12-26T21:58:14.000Z</time></trkpt>
        <trkpt lat="28.8311769" lon="105.2963108"><ele>438.92</ele><time>2025-12-26T21:58:26.000Z</time></trkpt>
        <trkpt lat="28.8311727" lon="105.296391"><ele>441.28</ele><time>2025-12-26T21:58:56.000Z</time></trkpt>
        <trkpt lat="28.8311017" lon="105.2965383"><ele>443.78</ele><time>2025-12-26T22:01:58.000Z</time></trkpt>
        <trkpt lat="28.8310467" lon="105.2966217"><ele>446.84</ele><time>2025-12-26T22:02:20.000Z</time></trkpt>
        <trkpt lat="28.83112" lon="105.2966599"><ele>450.61</ele><time>2025-12-26T22:02:54.000Z</time></trkpt>
        <trkpt lat="28.8311967" lon="105.2967367"><ele>454.13</ele><time>2025-12-26T22:03:58.000Z</time></trkpt>
        <trkpt lat="28.83125" lon="105.2968267"><ele>456.31</ele><time>2025-12-26T22:04:36.000Z</time></trkpt>
        <trkpt lat="28.83134" lon="105.2969773"><ele>461.04</ele><time>2025-12-26T22:05:32.000Z</time></trkpt>
        <trkpt lat="28.8314236" lon="105.2970499"><ele>465.5</ele><time>2025-12-26T22:05:46.000Z</time></trkpt>
        <trkpt lat="28.8314816" lon="105.2971712"><ele>469.15</ele><time>2025-12-26T22:06:36.000Z</time></trkpt>
        <trkpt lat="28.8315076" lon="105.297289"><ele>472.96</ele><time>2025-12-26T22:07:04.000Z</time></trkpt>
        <trkpt lat="28.8314817" lon="105.2974167"><ele>475.43</ele><time>2025-12-26T22:08:08.000Z</time></trkpt>
        <trkpt lat="28.8314633" lon="105.297535"><ele>480.45</ele><time>2025-12-26T22:08:32.000Z</time></trkpt>
        <trkpt lat="28.8314667" lon="105.2976483"><ele>484.26</ele><time>2025-12-26T22:11:59.000Z</time></trkpt>
        <trkpt lat="28.83155" lon="105.29769"><ele>491.85</ele><time>2025-12-26T22:12:25.000Z</time></trkpt>
        <trkpt lat="28.83156" lon="105.2977909"><ele>499.05</ele><time>2025-12-26T22:13:19.000Z</time></trkpt>
        <trkpt lat="28.8314875" lon="105.2978161"><ele>506.04</ele><time>2025-12-26T22:13:45.000Z</time></trkpt>
        <trkpt lat="28.831399" lon="105.2978555"><ele>513.08</ele><time>2025-12-26T22:14:01.000Z</time></trkpt>
        <trkpt lat="28.83134" lon="105.2979617"><ele>517.91</ele><time>2025-12-26T22:16:23.000Z</time></trkpt>
        <trkpt lat="28.83131" lon="105.2980883"><ele>523.71</ele><time>2025-12-26T22:16:53.000Z</time></trkpt>
        <trkpt lat="28.8313067" lon="105.2981917"><ele>527.84</ele><time>2025-12-26T22:18:31.000Z</time></trkpt>
        <trkpt lat="28.83131" lon="105.2983083"><ele>532.77</ele><time>2025-12-26T22:19:03.000Z</time></trkpt>
        <trkpt lat="28.8312823" lon="105.2984208"><ele>535.75</ele><time>2025-12-26T22:19:25.000Z</time></trkpt>
        <trkpt lat="28.8312568" lon="105.298535"><ele>538.22</ele><time>2025-12-26T22:19:51.000Z</time></trkpt>
        <trkpt lat="28.8312269" lon="105.2986423"><ele>541.44</ele><time>2025-12-26T22:20:27.000Z</time></trkpt>
        <trkpt lat="28.8312183" lon="105.298745"><ele>543.7</ele><time>2025-12-26T22:21:53.000Z</time></trkpt>
        <trkpt lat="28.8311683" lon="105.2988433"><ele>546.71</ele><time>2025-12-26T22:22:31.000Z</time></trkpt>
        <trkpt lat="28.8310929" lon="105.2989036"><ele>548.43</ele><time>2025-12-26T22:23:25.000Z</time></trkpt>
        <trkpt lat="28.8310105" lon="105.29897"><ele>550.48</ele><time>2025-12-26T22:23:43.000Z</time></trkpt>
        <trkpt lat="28.8309157" lon="105.299023"><ele>553.33</ele><time>2025-12-26T22:23:57.000Z</time></trkpt>
        <trkpt lat="28.8308219" lon="105.2990641"><ele>556.33</ele><time>2025-12-26T22:24:07.000Z</time></trkpt>
        <trkpt lat="28.8307473" lon="105.2991243"><ele>558.81</ele><time>2025-12-26T22:24:25.000Z</time></trkpt>
        <trkpt lat="28.8306689" lon="105.2991852"><ele>560.87</ele><time>2025-12-26T22:24:41.000Z</time></trkpt>
        <trkpt lat="28.8305872" lon="105.2992346"><ele>561.27</ele><time>2025-12-26T22:24:55.000Z</time></trkpt>
        <trkpt lat="28.8305229" lon="105.2993085"><ele>561.2</ele><time>2025-12-26T22:25:07.000Z</time></trkpt>
        <trkpt lat="28.8304562" lon="105.2993793"><ele>560.98</ele><time>2025-12-26T22:25:17.000Z</time></trkpt>
        <trkpt lat="28.8304341" lon="105.2994916"><ele>561.29</ele><time>2025-12-26T22:25:35.000Z</time></trkpt>
        <trkpt lat="28.830438" lon="105.2996313"><ele>560.74</ele><time>2025-12-26T22:26:01.000Z</time></trkpt>
        <trkpt lat="28.8304362" lon="105.2997584"><ele>560.89</ele><time>2025-12-26T22:26:19.000Z</time></trkpt>
        <trkpt lat="28.830412" lon="105.2998644"><ele>562.01</ele><time>2025-12-26T22:26:43.000Z</time></trkpt>
        <trkpt lat="28.8303571" lon="105.2999493"><ele>563.13</ele><time>2025-12-26T22:26:59.000Z</time></trkpt>
        <trkpt lat="28.8303254" lon="105.300051"><ele>563.98</ele><time>2025-12-26T22:27:15.000Z</time></trkpt>
        <trkpt lat="28.8303355" lon="105.3001605"><ele>564.63</ele><time>2025-12-26T22:27:25.000Z</time></trkpt>
        <trkpt lat="28.8303406" lon="105.3002826"><ele>564.66</ele><time>2025-12-26T22:28:17.000Z</time></trkpt>
        <trkpt lat="28.8302777" lon="105.3003501"><ele>568.03</ele><time>2025-12-26T22:28:36.000Z</time></trkpt>
        <trkpt lat="28.8301851" lon="105.3003653"><ele>567.12</ele><time>2025-12-26T22:28:56.000Z</time></trkpt>
        <trkpt lat="28.8301111" lon="105.3004253"><ele>565.69</ele><time>2025-12-26T22:29:14.000Z</time></trkpt>
        <trkpt lat="28.8300433" lon="105.3005417"><ele>565.74</ele><time>2025-12-26T22:30:23.000Z</time></trkpt>
        <trkpt lat="28.8299517" lon="105.300585"><ele>567.87</ele><time>2025-12-26T22:30:39.000Z</time></trkpt>
        <trkpt lat="28.8298826" lon="105.3006523"><ele>570.12</ele><time>2025-12-26T22:30:59.000Z</time></trkpt>
        <trkpt lat="28.8298007" lon="105.3007007"><ele>571.06</ele><time>2025-12-26T22:31:17.000Z</time></trkpt>
        <trkpt lat="28.8297188" lon="105.3007496"><ele>571.51</ele><time>2025-12-26T22:31:29.000Z</time></trkpt>
        <trkpt lat="28.8296407" lon="105.3008076"><ele>571.8</ele><time>2025-12-26T22:31:41.000Z</time></trkpt>
        <trkpt lat="28.8295552" lon="105.3008717"><ele>571.93</ele><time>2025-12-26T22:31:55.000Z</time></trkpt>
        <trkpt lat="28.8294795" lon="105.3009539"><ele>571.62</ele><time>2025-12-26T22:32:07.000Z</time></trkpt>
        <trkpt lat="28.8294151" lon="105.3010497"><ele>571.52</ele><time>2025-12-26T22:32:19.000Z</time></trkpt>
        <trkpt lat="28.8293282" lon="105.3010891"><ele>571.13</ele><time>2025-12-26T22:32:39.000Z</time></trkpt>
        <trkpt lat="28.8292472" lon="105.3011503"><ele>570.17</ele><time>2025-12-26T22:32:53.000Z</time></trkpt>
        <trkpt lat="28.8291681" lon="105.3012042"><ele>570.44</ele><time>2025-12-26T22:33:13.000Z</time></trkpt>
        <trkpt lat="28.8290971" lon="105.3012681"><ele>571.58</ele><time>2025-12-26T22:33:41.000Z</time></trkpt>
        <trkpt lat="28.8290279" lon="105.301336"><ele>572.45</ele><time>2025-12-26T22:34:03.000Z</time></trkpt>
        <trkpt lat="28.8289426" lon="105.3013775"><ele>573.98</ele><time>2025-12-26T22:34:23.000Z</time></trkpt>
        <trkpt lat="28.8288447" lon="105.3013902"><ele>575.23</ele><time>2025-12-26T22:34:37.000Z</time></trkpt>
        <trkpt lat="28.8287493" lon="105.3013685"><ele>575.95</ele><time>2025-12-26T22:34:51.000Z</time></trkpt>
        <trkpt lat="28.8286582" lon="105.3013278"><ele>576.36</ele><time>2025-12-26T22:35:05.000Z</time></trkpt>
        <trkpt lat="28.8285618" lon="105.3013045"><ele>576.42</ele><time>2025-12-26T22:35:21.000Z</time></trkpt>
        <trkpt lat="28.8284896" lon="105.3013628"><ele>574.99</ele><time>2025-12-26T22:35:33.000Z</time></trkpt>
        <trkpt lat="28.8284541" lon="105.301469"><ele>573.02</ele><time>2025-12-26T22:35:47.000Z</time></trkpt>
        <trkpt lat="28.8284571" lon="105.3015996"><ele>572.32</ele><time>2025-12-26T22:36:07.000Z</time></trkpt>
        <trkpt lat="28.8284804" lon="105.3017156"><ele>572.53</ele><time>2025-12-26T22:36:23.000Z</time></trkpt>
        <trkpt lat="28.8284524" lon="105.3018198"><ele>572.77</ele><time>2025-12-26T22:36:41.000Z</time></trkpt>
        <trkpt lat="28.828374" lon="105.3018821"><ele>573.47</ele><time>2025-12-26T22:36:55.000Z</time></trkpt>
        <trkpt lat="28.8282671" lon="105.3019153"><ele>574.43</ele><time>2025-12-26T22:37:25.000Z</time></trkpt>
        <trkpt lat="28.8281657" lon="105.3019514"><ele>576.14</ele><time>2025-12-26T22:37:37.000Z</time></trkpt>
        <trkpt lat="28.8280822" lon="105.3020088"><ele>577.5</ele><time>2025-12-26T22:37:51.000Z</time></trkpt>
        <trkpt lat="28.8280393" lon="105.3020993"><ele>576.94</ele><time>2025-12-26T22:38:03.000Z</time></trkpt>
        <trkpt lat="28.8280198" lon="105.3022063"><ele>576.36</ele><time>2025-12-26T22:38:17.000Z</time></trkpt>
        <trkpt lat="28.8280404" lon="105.302316"><ele>576.29</ele><time>2025-12-26T22:38:33.000Z</time></trkpt>
        <trkpt lat="28.8280968" lon="105.3024185"><ele>576.34</ele><time>2025-12-26T22:38:47.000Z</time></trkpt>
        <trkpt lat="28.8281779" lon="105.3024996"><ele>575.72</ele><time>2025-12-26T22:38:57.000Z</time></trkpt>
        <trkpt lat="28.8282729" lon="105.3025677"><ele>575.63</ele><time>2025-12-26T22:39:07.000Z</time></trkpt>
        <trkpt lat="28.828352" lon="105.3026395"><ele>576.3</ele><time>2025-12-26T22:39:21.000Z</time></trkpt>
        <trkpt lat="28.828354" lon="105.3027415"><ele>577.59</ele><time>2025-12-26T22:39:35.000Z</time></trkpt>
        <trkpt lat="28.8282922" lon="105.3028225"><ele>578.89</ele><time>2025-12-26T22:39:49.000Z</time></trkpt>
        <trkpt lat="28.8281972" lon="105.3028567"><ele>579.92</ele><time>2025-12-26T22:40:03.000Z</time></trkpt>
        <trkpt lat="28.8280908" lon="105.3028882"><ele>580.73</ele><time>2025-12-26T22:40:13.000Z</time></trkpt>
        <trkpt lat="28.8279862" lon="105.3029226"><ele>581.88</ele><time>2025-12-26T22:40:25.000Z</time></trkpt>
        <trkpt lat="28.8278792" lon="105.3029434"><ele>582.88</ele><time>2025-12-26T22:40:35.000Z</time></trkpt>
        <trkpt lat="28.8277791" lon="105.3029324"><ele>584.35</ele><time>2025-12-26T22:40:45.000Z</time></trkpt>
        <trkpt lat="28.8276876" lon="105.3028997"><ele>585.06</ele><time>2025-12-26T22:40:55.000Z</time></trkpt>
        <trkpt lat="28.8275881" lon="105.3028563"><ele>585.16</ele><time>2025-12-26T22:41:07.000Z</time></trkpt>
        <trkpt lat="28.827504" lon="105.3027965"><ele>584.4</ele><time>2025-12-26T22:41:23.000Z</time></trkpt>
        <trkpt lat="28.8274182" lon="105.3027274"><ele>583.16</ele><time>2025-12-26T22:41:41.000Z</time></trkpt>
        <trkpt lat="28.8273412" lon="105.302657"><ele>581.75</ele><time>2025-12-26T22:41:51.000Z</time></trkpt>
        <trkpt lat="28.827257" lon="105.3025925"><ele>581.09</ele><time>2025-12-26T22:42:01.000Z</time></trkpt>
        <trkpt lat="28.8271771" lon="105.3025324"><ele>580.88</ele><time>2025-12-26T22:42:11.000Z</time></trkpt>
        <trkpt lat="28.8270875" lon="105.3025015"><ele>581.19</ele><time>2025-12-26T22:42:23.000Z</time></trkpt>
        <trkpt lat="28.8269867" lon="105.3024961"><ele>583</ele><time>2025-12-26T22:42:33.000Z</time></trkpt>
        <trkpt lat="28.826886" lon="105.3025009"><ele>585.24</ele><time>2025-12-26T22:42:43.000Z</time></trkpt>
        <trkpt lat="28.8267949" lon="105.3025335"><ele>586.25</ele><time>2025-12-26T22:42:53.000Z</time></trkpt>
        <trkpt lat="28.8266977" lon="105.3025831"><ele>586.1</ele><time>2025-12-26T22:43:03.000Z</time></trkpt>
        <trkpt lat="28.8266269" lon="105.3026666"><ele>585.67</ele><time>2025-12-26T22:43:13.000Z</time></trkpt>
        <trkpt lat="28.8265846" lon="105.3027828"><ele>585.86</ele><time>2025-12-26T22:43:23.000Z</time></trkpt>
        <trkpt lat="28.8265614" lon="105.3028978"><ele>585.66</ele><time>2025-12-26T22:43:33.000Z</time></trkpt>
        <trkpt lat="28.8265391" lon="105.3030153"><ele>585.12</ele><time>2025-12-26T22:43:45.000Z</time></trkpt>
        <trkpt lat="28.8265112" lon="105.3031256"><ele>584.25</ele><time>2025-12-26T22:43:57.000Z</time></trkpt>
        <trkpt lat="28.8264712" lon="105.3032411"><ele>583.33</ele><time>2025-12-26T22:44:07.000Z</time></trkpt>
        <trkpt lat="28.8264452" lon="105.3033507"><ele>582.58</ele><time>2025-12-26T22:44:17.000Z</time></trkpt>
        <trkpt lat="28.8264524" lon="105.3034742"><ele>581.64</ele><time>2025-12-26T22:44:31.000Z</time></trkpt>
        <trkpt lat="28.8264448" lon="105.3035927"><ele>580.51</ele><time>2025-12-26T22:44:47.000Z</time></trkpt>
        <trkpt lat="28.8264273" lon="105.3036976"><ele>580.72</ele><time>2025-12-26T22:45:05.000Z</time></trkpt>
        <trkpt lat="28.8264096" lon="105.303806"><ele>581.66</ele><time>2025-12-26T22:45:27.000Z</time></trkpt>
        <trkpt lat="28.8263559" lon="105.303894"><ele>583.1</ele><time>2025-12-26T22:45:39.000Z</time></trkpt>
        <trkpt lat="28.8262755" lon="105.3039458"><ele>584.56</ele><time>2025-12-26T22:45:51.000Z</time></trkpt>
        <trkpt lat="28.8261862" lon="105.3039982"><ele>585.74</ele><time>2025-12-26T22:46:03.000Z</time></trkpt>
        <trkpt lat="28.8261162" lon="105.3040697"><ele>586.75</ele><time>2025-12-26T22:46:13.000Z</time></trkpt>
        <trkpt lat="28.8260464" lon="105.3041571"><ele>587.76</ele><time>2025-12-26T22:46:27.000Z</time></trkpt>
        <trkpt lat="28.8259627" lon="105.3042223"><ele>588.3</ele><time>2025-12-26T22:46:39.000Z</time></trkpt>
        <trkpt lat="28.8258728" lon="105.304276"><ele>587.61</ele><time>2025-12-26T22:46:49.000Z</time></trkpt>
        <trkpt lat="28.8257862" lon="105.3043335"><ele>586.92</ele><time>2025-12-26T22:46:59.000Z</time></trkpt>
        <trkpt lat="28.8256929" lon="105.3043848"><ele>586.39</ele><time>2025-12-26T22:47:13.000Z</time></trkpt>
        <trkpt lat="28.825596" lon="105.3044452"><ele>584.46</ele><time>2025-12-26T22:47:24.000Z</time></trkpt>
        <trkpt lat="28.8255146" lon="105.3045184"><ele>584</ele><time>2025-12-26T22:47:36.000Z</time></trkpt>
        <trkpt lat="28.8254306" lon="105.3045922"><ele>584.48</ele><time>2025-12-26T22:47:46.000Z</time></trkpt>
        <trkpt lat="28.8253775" lon="105.3046979"><ele>585.39</ele><time>2025-12-26T22:47:56.000Z</time></trkpt>
        <trkpt lat="28.8253306" lon="105.3047986"><ele>586.04</ele><time>2025-12-26T22:48:08.000Z</time></trkpt>
        <trkpt lat="28.8252515" lon="105.3048478"><ele>585.68</ele><time>2025-12-26T22:48:18.000Z</time></trkpt>
        <trkpt lat="28.8251782" lon="105.3047861"><ele>585</ele><time>2025-12-26T22:48:32.000Z</time></trkpt>
        <trkpt lat="28.8251156" lon="105.3046849"><ele>585</ele><time>2025-12-26T22:48:42.000Z</time></trkpt>
        <trkpt lat="28.8250321" lon="105.3046031"><ele>584.48</ele><time>2025-12-26T22:48:52.000Z</time></trkpt>
        <trkpt lat="28.8249393" lon="105.3045393"><ele>583.46</ele><time>2025-12-26T22:49:04.000Z</time></trkpt>
        <trkpt lat="28.8248478" lon="105.304493"><ele>582.27</ele><time>2025-12-26T22:49:12.000Z</time></trkpt>
        <trkpt lat="28.8247526" lon="105.3045009"><ele>581.21</ele><time>2025-12-26T22:49:22.000Z</time></trkpt>
        <trkpt lat="28.8246579" lon="105.3045065"><ele>579.44</ele><time>2025-12-26T22:49:32.000Z</time></trkpt>
        <trkpt lat="28.8245638" lon="105.3045139"><ele>577.79</ele><time>2025-12-26T22:49:42.000Z</time></trkpt>
        <trkpt lat="28.8244689" lon="105.3045305"><ele>577.15</ele><time>2025-12-26T22:49:52.000Z</time></trkpt>
        <trkpt lat="28.8243637" lon="105.3045643"><ele>576.53</ele><time>2025-12-26T22:50:02.000Z</time></trkpt>
        <trkpt lat="28.8242699" lon="105.304621"><ele>576</ele><time>2025-12-26T22:50:14.000Z</time></trkpt>
        <trkpt lat="28.8242121" lon="105.3047058"><ele>576.04</ele><time>2025-12-26T22:50:24.000Z</time></trkpt>
        <trkpt lat="28.8241434" lon="105.3047876"><ele>576.28</ele><time>2025-12-26T22:50:32.000Z</time></trkpt>
        <trkpt lat="28.8240611" lon="105.3048644"><ele>576.46</ele><time>2025-12-26T22:50:44.000Z</time></trkpt>
        <trkpt lat="28.8239946" lon="105.3049507"><ele>574.24</ele><time>2025-12-26T22:50:54.000Z</time></trkpt>
        <trkpt lat="28.8239318" lon="105.305035"><ele>571.43</ele><time>2025-12-26T22:51:02.000Z</time></trkpt>
        <trkpt lat="28.8238797" lon="105.3051254"><ele>568.66</ele><time>2025-12-26T22:51:12.000Z</time></trkpt>
        <trkpt lat="28.8238161" lon="105.305204"><ele>566.18</ele><time>2025-12-26T22:51:22.000Z</time></trkpt>
        <trkpt lat="28.8237598" lon="105.3052979"><ele>564.56</ele><time>2025-12-26T22:51:30.000Z</time></trkpt>
        <trkpt lat="28.8236826" lon="105.3053701"><ele>563.93</ele><time>2025-12-26T22:51:42.000Z</time></trkpt>
        <trkpt lat="28.8235924" lon="105.3053938"><ele>564.95</ele><time>2025-12-26T22:51:56.000Z</time></trkpt>
        <trkpt lat="28.8235098" lon="105.305343"><ele>568.07</ele><time>2025-12-26T22:52:10.000Z</time></trkpt>
        <trkpt lat="28.8234186" lon="105.3052743"><ele>571.01</ele><time>2025-12-26T22:52:20.000Z</time></trkpt>
        <trkpt lat="28.8233095" lon="105.305166"><ele>573.15</ele><time>2025-12-26T22:52:37.000Z</time></trkpt>
        <trkpt lat="28.823207" lon="105.3051625"><ele>587.67</ele><time>2025-12-26T22:52:43.000Z</time></trkpt>
        <trkpt lat="28.823142" lon="105.3052328"><ele>592.16</ele><time>2025-12-26T22:52:55.000Z</time></trkpt>
        <trkpt lat="28.8230634" lon="105.3052979"><ele>588.86</ele><time>2025-12-26T22:53:05.000Z</time></trkpt>
        <trkpt lat="28.8229881" lon="105.3052663"><ele>583.42</ele><time>2025-12-26T22:53:15.000Z</time></trkpt>
        <trkpt lat="28.8228999" lon="105.3052503"><ele>578.98</ele><time>2025-12-26T22:53:25.000Z</time></trkpt>
        <trkpt lat="28.8228105" lon="105.3052927"><ele>574.99</ele><time>2025-12-26T22:53:35.000Z</time></trkpt>
        <trkpt lat="28.8227374" lon="105.3053802"><ele>571.81</ele><time>2025-12-26T22:53:45.000Z</time></trkpt>
        <trkpt lat="28.8226869" lon="105.3054827"><ele>568.62</ele><time>2025-12-26T22:53:53.000Z</time></trkpt>
        <trkpt lat="28.8226477" lon="105.3055982"><ele>566.25</ele><time>2025-12-26T22:54:01.000Z</time></trkpt>
        <trkpt lat="28.8225936" lon="105.3056993"><ele>564.25</ele><time>2025-12-26T22:54:11.000Z</time></trkpt>
        <trkpt lat="28.8225187" lon="105.3057678"><ele>563.37</ele><time>2025-12-26T22:54:21.000Z</time></trkpt>
        <trkpt lat="28.82244" lon="105.3057252"><ele>563.04</ele><time>2025-12-26T22:54:35.000Z</time></trkpt>
        <trkpt lat="28.8223911" lon="105.3056159"><ele>563.37</ele><time>2025-12-26T22:54:49.000Z</time></trkpt>
        <trkpt lat="28.8223665" lon="105.3054955"><ele>564.03</ele><time>2025-12-26T22:54:59.000Z</time></trkpt>
        <trkpt lat="28.8223382" lon="105.3053809"><ele>564.06</ele><time>2025-12-26T22:55:09.000Z</time></trkpt>
        <trkpt lat="28.8222654" lon="105.3053003"><ele>563.56</ele><time>2025-12-26T22:55:21.000Z</time></trkpt>
        <trkpt lat="28.8221629" lon="105.3052619"><ele>562.89</ele><time>2025-12-26T22:55:31.000Z</time></trkpt>
        <trkpt lat="28.8220628" lon="105.3052331"><ele>562.55</ele><time>2025-12-26T22:55:41.000Z</time></trkpt>
        <trkpt lat="28.8219913" lon="105.3051713"><ele>560.46</ele><time>2025-12-26T22:55:49.000Z</time></trkpt>
        <trkpt lat="28.8219441" lon="105.3050854"><ele>559.4</ele><time>2025-12-26T22:55:59.000Z</time></trkpt>
        <trkpt lat="28.8219087" lon="105.3049878"><ele>559.32</ele><time>2025-12-26T22:56:11.000Z</time></trkpt>
        <trkpt lat="28.8218519" lon="105.3049063"><ele>560.04</ele><time>2025-12-26T22:56:21.000Z</time></trkpt>
        <trkpt lat="28.8217745" lon="105.3048298"><ele>561.7</ele><time>2025-12-26T22:56:33.000Z</time></trkpt>
        <trkpt lat="28.8217087" lon="105.3047401"><ele>563.51</ele><time>2025-12-26T22:56:45.000Z</time></trkpt>
        <trkpt lat="28.8216433" lon="105.3046414"><ele>564.71</ele><time>2025-12-26T22:56:53.000Z</time></trkpt>
        <trkpt lat="28.8215545" lon="105.3045864"><ele>565.39</ele><time>2025-12-26T22:57:07.000Z</time></trkpt>
        <trkpt lat="28.8215133" lon="105.3045682"><ele>566.08</ele><time>2025-12-26T22:57:17.000Z</time></trkpt>
        <trkpt lat="28.8215683" lon="105.3044967"><ele>566.65</ele><time>2025-12-26T22:58:33.000Z</time></trkpt>
        <trkpt lat="28.8215083" lon="105.30442"><ele>568.31</ele><time>2025-12-26T22:58:43.000Z</time></trkpt>
        <trkpt lat="28.8214441" lon="105.3043433"><ele>568.05</ele><time>2025-12-26T22:58:57.000Z</time></trkpt>
        <trkpt lat="28.8213843" lon="105.3042551"><ele>565.53</ele><time>2025-12-26T22:59:09.000Z</time></trkpt>
        <trkpt lat="28.821322" lon="105.3041707"><ele>562.76</ele><time>2025-12-26T22:59:23.000Z</time></trkpt>
        <trkpt lat="28.8212588" lon="105.3040757"><ele>559.68</ele><time>2025-12-26T22:59:37.000Z</time></trkpt>
        <trkpt lat="28.8211854" lon="105.3039905"><ele>556.25</ele><time>2025-12-26T22:59:53.000Z</time></trkpt>
        <trkpt lat="28.8211482" lon="105.3038946"><ele>553.04</ele><time>2025-12-26T23:00:07.000Z</time></trkpt>
        <trkpt lat="28.8211038" lon="105.3037983"><ele>549.5</ele><time>2025-12-26T23:00:15.000Z</time></trkpt>
        <trkpt lat="28.8210837" lon="105.3036874"><ele>545.8</ele><time>2025-12-26T23:00:25.000Z</time></trkpt>
        <trkpt lat="28.8210621" lon="105.3035764"><ele>542.23</ele><time>2025-12-26T23:00:35.000Z</time></trkpt>
        <trkpt lat="28.8210658" lon="105.3034651"><ele>538.95</ele><time>2025-12-26T23:00:55.000Z</time></trkpt>
        <trkpt lat="28.8211207" lon="105.3033842"><ele>536.26</ele><time>2025-12-26T23:01:05.000Z</time></trkpt>
        <trkpt lat="28.8211711" lon="105.3032947"><ele>534.21</ele><time>2025-12-26T23:01:17.000Z</time></trkpt>
        <trkpt lat="28.8212249" lon="105.3031955"><ele>532.53</ele><time>2025-12-26T23:01:27.000Z</time></trkpt>
        <trkpt lat="28.8212745" lon="105.3030912"><ele>531.01</ele><time>2025-12-26T23:01:37.000Z</time></trkpt>
        <trkpt lat="28.821354" lon="105.3030116"><ele>529.46</ele><time>2025-12-26T23:01:51.000Z</time></trkpt>
        <trkpt lat="28.8214527" lon="105.302988"><ele>527.76</ele><time>2025-12-26T23:02:05.000Z</time></trkpt>
        <trkpt lat="28.821548" lon="105.3030124"><ele>525.92</ele><time>2025-12-26T23:02:15.000Z</time></trkpt>
        <trkpt lat="28.8216462" lon="105.3029969"><ele>524.19</ele><time>2025-12-26T23:02:39.000Z</time></trkpt>
        <trkpt lat="28.8217308" lon="105.3029359"><ele>522.69</ele><time>2025-12-26T23:02:55.000Z</time></trkpt>
        <trkpt lat="28.821791" lon="105.3028481"><ele>521.49</ele><time>2025-12-26T23:03:05.000Z</time></trkpt>
        <trkpt lat="28.8217939" lon="105.3027166"><ele>519.9</ele><time>2025-12-26T23:03:15.000Z</time></trkpt>
        <trkpt lat="28.8217587" lon="105.3026018"><ele>517.79</ele><time>2025-12-26T23:03:33.000Z</time></trkpt>
        <trkpt lat="28.821736" lon="105.3024844"><ele>516.29</ele><time>2025-12-26T23:03:43.000Z</time></trkpt>
        <trkpt lat="28.8217421" lon="105.3023736"><ele>515.48</ele><time>2025-12-26T23:03:53.000Z</time></trkpt>
        <trkpt lat="28.821764" lon="105.3022582"><ele>514.8</ele><time>2025-12-26T23:04:05.000Z</time></trkpt>
        <trkpt lat="28.8217822" lon="105.3021526"><ele>514.28</ele><time>2025-12-26T23:04:21.000Z</time></trkpt>
        <trkpt lat="28.8217939" lon="105.3020446"><ele>514.63</ele><time>2025-12-26T23:04:31.000Z</time></trkpt>
        <trkpt lat="28.8218392" lon="105.3019502"><ele>514.79</ele><time>2025-12-26T23:04:41.000Z</time></trkpt>
        <trkpt lat="28.8218631" lon="105.3018445"><ele>515.35</ele><time>2025-12-26T23:04:51.000Z</time></trkpt>
        <trkpt lat="28.8219073" lon="105.3017515"><ele>515.76</ele><time>2025-12-26T23:05:05.000Z</time></trkpt>
        <trkpt lat="28.8219943" lon="105.3016983"><ele>516.64</ele><time>2025-12-26T23:05:17.000Z</time></trkpt>
        <trkpt lat="28.8220834" lon="105.3016503"><ele>516.62</ele><time>2025-12-26T23:05:27.000Z</time></trkpt>
        <trkpt lat="28.8221492" lon="105.3015767"><ele>515.02</ele><time>2025-12-26T23:05:39.000Z</time></trkpt>
        <trkpt lat="28.8221997" lon="105.3014858"><ele>513.03</ele><time>2025-12-26T23:05:47.000Z</time></trkpt>
        <trkpt lat="28.8221962" lon="105.3013754"><ele>511.04</ele><time>2025-12-26T23:06:01.000Z</time></trkpt>
        <trkpt lat="28.8222054" lon="105.3012654"><ele>508.74</ele><time>2025-12-26T23:06:11.000Z</time></trkpt>
        <trkpt lat="28.822214" lon="105.3011535"><ele>506.36</ele><time>2025-12-26T23:06:21.000Z</time></trkpt>
        <trkpt lat="28.8221809" lon="105.3010405"><ele>504.44</ele><time>2025-12-26T23:06:39.000Z</time></trkpt>
        <trkpt lat="28.8221132" lon="105.3009528"><ele>502.4</ele><time>2025-12-26T23:06:49.000Z</time></trkpt>
        <trkpt lat="28.8220606" lon="105.3008559"><ele>500.38</ele><time>2025-12-26T23:07:05.000Z</time></trkpt>
        <trkpt lat="28.8220305" lon="105.3007532"><ele>498.62</ele><time>2025-12-26T23:07:19.000Z</time></trkpt>
        <trkpt lat="28.8220446" lon="105.3006507"><ele>498.14</ele><time>2025-12-26T23:07:37.000Z</time></trkpt>
        <trkpt lat="28.8221143" lon="105.3005749"><ele>497.82</ele><time>2025-12-26T23:07:57.000Z</time></trkpt>
        <trkpt lat="28.8222051" lon="105.3005327"><ele>497.73</ele><time>2025-12-26T23:08:11.000Z</time></trkpt>
        <trkpt lat="28.8222992" lon="105.3004964"><ele>498.36</ele><time>2025-12-26T23:08:21.000Z</time></trkpt>
        <trkpt lat="28.8223808" lon="105.3004334"><ele>498.38</ele><time>2025-12-26T23:08:33.000Z</time></trkpt>
        <trkpt lat="28.8224558" lon="105.3003539"><ele>497.74</ele><time>2025-12-26T23:08:43.000Z</time></trkpt>
        <trkpt lat="28.8225205" lon="105.300254"><ele>496.35</ele><time>2025-12-26T23:08:55.000Z</time></trkpt>
        <trkpt lat="28.8226066" lon="105.3001753"><ele>495.64</ele><time>2025-12-26T23:09:07.000Z</time></trkpt>
        <trkpt lat="28.8226837" lon="105.3000911"><ele>495.11</ele><time>2025-12-26T23:09:19.000Z</time></trkpt>
        <trkpt lat="28.8227666" lon="105.3000109"><ele>494.54</ele><time>2025-12-26T23:09:33.000Z</time></trkpt>
        <trkpt lat="28.8228103" lon="105.2999061"><ele>494.65</ele><time>2025-12-26T23:10:01.000Z</time></trkpt>
        <trkpt lat="28.8228107" lon="105.2997909"><ele>494.24</ele><time>2025-12-26T23:10:43.000Z</time></trkpt>
        <trkpt lat="28.8227572" lon="105.2997032"><ele>493.54</ele><time>2025-12-26T23:10:53.000Z</time></trkpt>
        <trkpt lat="28.8226736" lon="105.2996432"><ele>493.22</ele><time>2025-12-26T23:11:03.000Z</time></trkpt>
        <trkpt lat="28.8225863" lon="105.2995861"><ele>492.78</ele><time>2025-12-26T23:11:15.000Z</time></trkpt>
        <trkpt lat="28.8225081" lon="105.2995206"><ele>491.89</ele><time>2025-12-26T23:11:25.000Z</time></trkpt>
        <trkpt lat="28.8224444" lon="105.2994258"><ele>491.29</ele><time>2025-12-26T23:11:39.000Z</time></trkpt>
        <trkpt lat="28.8224344" lon="105.2993139"><ele>490.05</ele><time>2025-12-26T23:11:51.000Z</time></trkpt>
        <trkpt lat="28.8224611" lon="105.2991947"><ele>487.06</ele><time>2025-12-26T23:12:05.000Z</time></trkpt>
        <trkpt lat="28.8225107" lon="105.2990958"><ele>485.27</ele><time>2025-12-26T23:12:19.000Z</time></trkpt>
        <trkpt lat="28.8225736" lon="105.298997"><ele>484.51</ele><time>2025-12-26T23:12:33.000Z</time></trkpt>
        <trkpt lat="28.8226295" lon="105.2988915"><ele>483.73</ele><time>2025-12-26T23:12:45.000Z</time></trkpt>
        <trkpt lat="28.8226854" lon="105.2987934"><ele>482.25</ele><time>2025-12-26T23:12:55.000Z</time></trkpt>
        <trkpt lat="28.8227129" lon="105.2986919"><ele>480.34</ele><time>2025-12-26T23:13:05.000Z</time></trkpt>
        <trkpt lat="28.8227269" lon="105.2985852"><ele>477.65</ele><time>2025-12-26T23:13:17.000Z</time></trkpt>
        <trkpt lat="28.8227512" lon="105.2984804"><ele>474.02</ele><time>2025-12-26T23:13:29.000Z</time></trkpt>
        <trkpt lat="28.8227756" lon="105.2983703"><ele>470.96</ele><time>2025-12-26T23:13:39.000Z</time></trkpt>
        <trkpt lat="28.8228265" lon="105.2982671"><ele>469.38</ele><time>2025-12-26T23:13:49.000Z</time></trkpt>
        <trkpt lat="28.8229073" lon="105.2982043"><ele>468.87</ele><time>2025-12-26T23:14:03.000Z</time></trkpt>
        <trkpt lat="28.8230088" lon="105.2982137"><ele>467.85</ele><time>2025-12-26T23:14:13.000Z</time></trkpt>
        <trkpt lat="28.8230955" lon="105.2982746"><ele>466.58</ele><time>2025-12-26T23:14:27.000Z</time></trkpt>
        <trkpt lat="28.8231945" lon="105.2982829"><ele>465.69</ele><time>2025-12-26T23:14:45.000Z</time></trkpt>
        <trkpt lat="28.8232736" lon="105.2982287"><ele>463.8</ele><time>2025-12-26T23:14:57.000Z</time></trkpt>
        <trkpt lat="28.8233271" lon="105.2982882"><ele>461.78</ele><time>2025-12-26T23:15:29.000Z</time></trkpt>
        <trkpt lat="28.8233768" lon="105.2983801"><ele>459.03</ele><time>2025-12-26T23:15:41.000Z</time></trkpt>
        <trkpt lat="28.8234118" lon="105.2984856"><ele>456.95</ele><time>2025-12-26T23:15:55.000Z</time></trkpt>
        <trkpt lat="28.8234087" lon="105.2986082"><ele>455</ele><time>2025-12-26T23:16:09.000Z</time></trkpt>
        <trkpt lat="28.8233819" lon="105.298723"><ele>453.32</ele><time>2025-12-26T23:16:19.000Z</time></trkpt>
        <trkpt lat="28.8233731" lon="105.2988385"><ele>452.32</ele><time>2025-12-26T23:16:29.000Z</time></trkpt>
        <trkpt lat="28.8234023" lon="105.2989485"><ele>451.75</ele><time>2025-12-26T23:16:41.000Z</time></trkpt>
        <trkpt lat="28.8234686" lon="105.2990234"><ele>451.17</ele><time>2025-12-26T23:16:53.000Z</time></trkpt>
        <trkpt lat="28.8235566" lon="105.2990667"><ele>450.71</ele><time>2025-12-26T23:17:03.000Z</time></trkpt>
        <trkpt lat="28.8236457" lon="105.2991317"><ele>450.32</ele><time>2025-12-26T23:17:17.000Z</time></trkpt>
        <trkpt lat="28.8237212" lon="105.2992011"><ele>450.65</ele><time>2025-12-26T23:17:27.000Z</time></trkpt>
        <trkpt lat="28.8237489" lon="105.2993025"><ele>451.02</ele><time>2025-12-26T23:17:37.000Z</time></trkpt>
        <trkpt lat="28.8237578" lon="105.2994116"><ele>451.1</ele><time>2025-12-26T23:17:47.000Z</time></trkpt>
        <trkpt lat="28.8237624" lon="105.2995206"><ele>450.62</ele><time>2025-12-26T23:17:57.000Z</time></trkpt>
        <trkpt lat="28.8238192" lon="105.2995956"><ele>450.27</ele><time>2025-12-26T23:18:09.000Z</time></trkpt>
        <trkpt lat="28.8238878" lon="105.2996637"><ele>449.72</ele><time>2025-12-26T23:18:21.000Z</time></trkpt>
        <trkpt lat="28.8239524" lon="105.299747"><ele>448.64</ele><time>2025-12-26T23:18:37.000Z</time></trkpt>
        <trkpt lat="28.8240188" lon="105.2998308"><ele>446.6</ele><time>2025-12-26T23:18:49.000Z</time></trkpt>
        <trkpt lat="28.8241117" lon="105.29982"><ele>444.79</ele><time>2025-12-26T23:19:57.000Z</time></trkpt>
        <trkpt lat="28.8242067" lon="105.2997883"><ele>446.39</ele><time>2025-12-26T23:20:23.000Z</time></trkpt>
        <trkpt lat="28.8242622" lon="105.2996988"><ele>445.66</ele><time>2025-12-26T23:20:35.000Z</time></trkpt>
        <trkpt lat="28.8243493" lon="105.2996712"><ele>444.56</ele><time>2025-12-26T23:20:53.000Z</time></trkpt>
        <trkpt lat="28.8244273" lon="105.2995985"><ele>444.02</ele><time>2025-12-26T23:21:03.000Z</time></trkpt>
        <trkpt lat="28.8244603" lon="105.2994974"><ele>443.88</ele><time>2025-12-26T23:21:13.000Z</time></trkpt>
        <trkpt lat="28.8245107" lon="105.2993985"><ele>445.22</ele><time>2025-12-26T23:21:23.000Z</time></trkpt>
        <trkpt lat="28.82458" lon="105.2993301"><ele>446.8</ele><time>2025-12-26T23:21:35.000Z</time></trkpt>
        <trkpt lat="28.8246616" lon="105.2992679"><ele>448.31</ele><time>2025-12-26T23:21:45.000Z</time></trkpt>
        <trkpt lat="28.8247394" lon="105.2991879"><ele>448.78</ele><time>2025-12-26T23:22:31.000Z</time></trkpt>
        <trkpt lat="28.8248021" lon="105.2990956"><ele>448.31</ele><time>2025-12-26T23:22:43.000Z</time></trkpt>
        <trkpt lat="28.8248639" lon="105.2990156"><ele>449.21</ele><time>2025-12-26T23:22:55.000Z</time></trkpt>
        <trkpt lat="28.8249399" lon="105.2989585"><ele>450.41</ele><time>2025-12-26T23:23:13.000Z</time></trkpt>
        <trkpt lat="28.8250276" lon="105.2989184"><ele>452.21</ele><time>2025-12-26T23:23:25.000Z</time></trkpt>
        <trkpt lat="28.8251178" lon="105.2988718"><ele>453.41</ele><time>2025-12-26T23:23:41.000Z</time></trkpt>
        <trkpt lat="28.8252055" lon="105.2988313"><ele>454.01</ele><time>2025-12-26T23:23:55.000Z</time></trkpt>
        <trkpt lat="28.8253041" lon="105.2988288"><ele>453.57</ele><time>2025-12-26T23:24:07.000Z</time></trkpt>
        <trkpt lat="28.825404" lon="105.2988383"><ele>452.55</ele><time>2025-12-26T23:24:21.000Z</time></trkpt>
        <trkpt lat="28.8255087" lon="105.2988749"><ele>450.25</ele><time>2025-12-26T23:24:35.000Z</time></trkpt>
        <trkpt lat="28.8256021" lon="105.2988692"><ele>447.26</ele><time>2025-12-26T23:24:47.000Z</time></trkpt>
        <trkpt lat="28.8256822" lon="105.2988219"><ele>445</ele><time>2025-12-26T23:24:59.000Z</time></trkpt>
        <trkpt lat="28.8257703" lon="105.2987954"><ele>443.24</ele><time>2025-12-26T23:25:13.000Z</time></trkpt>
        <trkpt lat="28.8258522" lon="105.2988407"><ele>442.14</ele><time>2025-12-26T23:25:29.000Z</time></trkpt>
        <trkpt lat="28.8259144" lon="105.2989251"><ele>441.87</ele><time>2025-12-26T23:26:17.000Z</time></trkpt>
        <trkpt lat="28.825981" lon="105.2990099"><ele>441.28</ele><time>2025-12-26T23:26:45.000Z</time></trkpt>
        <trkpt lat="28.8260642" lon="105.2990671"><ele>440.9</ele><time>2025-12-26T23:27:07.000Z</time></trkpt>
        <trkpt lat="28.8261452" lon="105.2990192"><ele>441.5</ele><time>2025-12-26T23:27:21.000Z</time></trkpt>
        <trkpt lat="28.8262247" lon="105.2989533"><ele>442.19</ele><time>2025-12-26T23:27:35.000Z</time></trkpt>
        <trkpt lat="28.8263147" lon="105.2989419"><ele>443.23</ele><time>2025-12-26T23:27:57.000Z</time></trkpt>
        <trkpt lat="28.8264123" lon="105.2989382"><ele>444.03</ele><time>2025-12-26T23:28:05.000Z</time></trkpt>
        <trkpt lat="28.8265144" lon="105.2989291"><ele>444.36</ele><time>2025-12-26T23:28:21.000Z</time></trkpt>
        <trkpt lat="28.8266026" lon="105.2988946"><ele>444.38</ele><time>2025-12-26T23:28:35.000Z</time></trkpt>
        <trkpt lat="28.8266937" lon="105.298877"><ele>445.12</ele><time>2025-12-26T23:29:07.000Z</time></trkpt>
        <trkpt lat="28.8267826" lon="105.298823"><ele>446.36</ele><time>2025-12-26T23:29:33.000Z</time></trkpt>
        <trkpt lat="28.8268783" lon="105.2987918"><ele>446.25</ele><time>2025-12-26T23:30:11.000Z</time></trkpt>
        <trkpt lat="28.826979" lon="105.2987758"><ele>446.05</ele><time>2025-12-26T23:30:23.000Z</time></trkpt>
        <trkpt lat="28.8270764" lon="105.2987639"><ele>445.99</ele><time>2025-12-26T23:30:43.000Z</time></trkpt>
        <trkpt lat="28.8271746" lon="105.298755"><ele>446.38</ele><time>2025-12-26T23:31:09.000Z</time></trkpt>
        <trkpt lat="28.827268" lon="105.2987389"><ele>446.52</ele><time>2025-12-26T23:31:37.000Z</time></trkpt>
        <trkpt lat="28.8273571" lon="105.298756"><ele>446.81</ele><time>2025-12-26T23:31:49.000Z</time></trkpt>
        <trkpt lat="28.8274499" lon="105.298749"><ele>446.89</ele><time>2025-12-26T23:32:01.000Z</time></trkpt>
        <trkpt lat="28.8275431" lon="105.2987251"><ele>446.59</ele><time>2025-12-26T23:32:47.000Z</time></trkpt>
        <trkpt lat="28.8276403" lon="105.2987318"><ele>448.32</ele><time>2025-12-26T23:33:11.000Z</time></trkpt>
        <trkpt lat="28.8277012" lon="105.2988134"><ele>448.7</ele><time>2025-12-26T23:33:21.000Z</time></trkpt>
        <trkpt lat="28.827775" lon="105.2988913"><ele>448.18</ele><time>2025-12-26T23:33:33.000Z</time></trkpt>
        <trkpt lat="28.8278354" lon="105.2989868"><ele>447.54</ele><time>2025-12-26T23:33:51.000Z</time></trkpt>
        <trkpt lat="28.8278873" lon="105.2990929"><ele>446.36</ele><time>2025-12-26T23:34:09.000Z</time></trkpt>
        <trkpt lat="28.827927" lon="105.2992031"><ele>445.56</ele><time>2025-12-26T23:34:39.000Z</time></trkpt>
        <trkpt lat="28.8279732" lon="105.2993193"><ele>446.05</ele><time>2025-12-26T23:34:51.000Z</time></trkpt>
        <trkpt lat="28.8280643" lon="105.2993853"><ele>445.17</ele><time>2025-12-26T23:35:03.000Z</time></trkpt>
        <trkpt lat="28.828167" lon="105.2993906"><ele>443.85</ele><time>2025-12-26T23:35:11.000Z</time></trkpt>
        <trkpt lat="28.8282404" lon="105.2993197"><ele>442.54</ele><time>2025-12-26T23:35:21.000Z</time></trkpt>
        <trkpt lat="28.8283174" lon="105.2992392"><ele>442.01</ele><time>2025-12-26T23:35:39.000Z</time></trkpt>
        <trkpt lat="28.8283914" lon="105.2991631"><ele>441.06</ele><time>2025-12-26T23:35:51.000Z</time></trkpt>
        <trkpt lat="28.8284707" lon="105.2991001"><ele>440.52</ele><time>2025-12-26T23:36:01.000Z</time></trkpt>
        <trkpt lat="28.8285421" lon="105.2990111"><ele>439.56</ele><time>2025-12-26T23:36:15.000Z</time></trkpt>
        <trkpt lat="28.8286292" lon="105.2989231"><ele>439.32</ele><time>2025-12-26T23:36:25.000Z</time></trkpt>
        <trkpt lat="28.8287037" lon="105.2988306"><ele>439.57</ele><time>2025-12-26T23:36:35.000Z</time></trkpt>
        <trkpt lat="28.8287453" lon="105.2987224"><ele>440.49</ele><time>2025-12-26T23:36:47.000Z</time></trkpt>
        <trkpt lat="28.8287902" lon="105.2986265"><ele>441.31</ele><time>2025-12-26T23:37:03.000Z</time></trkpt>
        <trkpt lat="28.8288659" lon="105.2985739"><ele>441.95</ele><time>2025-12-26T23:37:29.000Z</time></trkpt>
        <trkpt lat="28.828955" lon="105.2985935"><ele>440.81</ele><time>2025-12-26T23:37:39.000Z</time></trkpt>
        <trkpt lat="28.8290577" lon="105.2986157"><ele>440.63</ele><time>2025-12-26T23:37:53.000Z</time></trkpt>
        <trkpt lat="28.8291378" lon="105.2985598"><ele>441.82</ele><time>2025-12-26T23:38:07.000Z</time></trkpt>
        <trkpt lat="28.8291905" lon="105.2984662"><ele>442.89</ele><time>2025-12-26T23:38:21.000Z</time></trkpt>
        <trkpt lat="28.8292387" lon="105.2983628"><ele>443.32</ele><time>2025-12-26T23:38:35.000Z</time></trkpt>
        <trkpt lat="28.8293033" lon="105.2982707"><ele>442.54</ele><time>2025-12-26T23:38:47.000Z</time></trkpt>
        <trkpt lat="28.8293588" lon="105.2981699"><ele>441.62</ele><time>2025-12-26T23:39:05.000Z</time></trkpt>
        <trkpt lat="28.8293869" lon="105.2980643"><ele>440.41</ele><time>2025-12-26T23:39:13.000Z</time></trkpt>
        <trkpt lat="28.8293915" lon="105.2979563"><ele>438.98</ele><time>2025-12-26T23:39:44.000Z</time></trkpt>
        <trkpt lat="28.8294156" lon="105.2978546"><ele>444.58</ele><time>2025-12-26T23:39:59.000Z</time></trkpt>
        <trkpt lat="28.8294777" lon="105.2977693"><ele>447.04</ele><time>2025-12-26T23:40:05.000Z</time></trkpt>
        <trkpt lat="28.8295538" lon="105.2977025"><ele>446.59</ele><time>2025-12-26T23:40:15.000Z</time></trkpt>
        <trkpt lat="28.8296368" lon="105.2976366"><ele>443.07</ele><time>2025-12-26T23:40:27.000Z</time></trkpt>
        <trkpt lat="28.8296916" lon="105.2975368"><ele>440.24</ele><time>2025-12-26T23:40:43.000Z</time></trkpt>
        <trkpt lat="28.8297386" lon="105.2974264"><ele>436.65</ele><time>2025-12-26T23:40:57.000Z</time></trkpt>
        <trkpt lat="28.8297659" lon="105.2973034"><ele>433.92</ele><time>2025-12-26T23:41:13.000Z</time></trkpt>
        <trkpt lat="28.8298108" lon="105.2971872"><ele>432.36</ele><time>2025-12-26T23:41:41.000Z</time></trkpt>
        <trkpt lat="28.8298648" lon="105.2970774"><ele>432.47</ele><time>2025-12-26T23:41:47.000Z</time></trkpt>
        <trkpt lat="28.8299258" lon="105.2969803"><ele>431.71</ele><time>2025-12-26T23:41:55.000Z</time></trkpt>
        <trkpt lat="28.829945" lon="105.2969115"><ele>429.77</ele><time>2025-12-26T23:42:05.000Z</time></trkpt>
        <trkpt lat="28.8300095" lon="105.2968497"><ele>428.41</ele><time>2025-12-26T23:42:21.000Z</time></trkpt>
        <trkpt lat="28.8301126" lon="105.2967497"><ele>426.3</ele><time>2025-12-26T23:42:49.000Z</time></trkpt>
        <trkpt lat="28.8301882" lon="105.2966532"><ele>423.59</ele><time>2025-12-26T23:43:03.000Z</time></trkpt>
        <trkpt lat="28.8302195" lon="105.2965454"><ele>421.14</ele><time>2025-12-26T23:43:19.000Z</time></trkpt>
        <trkpt lat="28.8302072" lon="105.2964278"><ele>418.5</ele><time>2025-12-26T23:43:33.000Z</time></trkpt>
        <trkpt lat="28.8302038" lon="105.296315"><ele>416.22</ele><time>2025-12-26T23:43:51.000Z</time></trkpt>
        <trkpt lat="28.8302287" lon="105.296215"><ele>413.29</ele><time>2025-12-26T23:44:05.000Z</time></trkpt>
        <trkpt lat="28.8302716" lon="105.2960423"><ele>410.41</ele><time>2025-12-26T23:44:37.000Z</time></trkpt>
        <trkpt lat="28.8302727" lon="105.2959138"><ele>406.49</ele><time>2025-12-26T23:45:03.000Z</time></trkpt>
        <trkpt lat="28.8302659" lon="105.2957927"><ele>402.11</ele><time>2025-12-26T23:45:21.000Z</time></trkpt>
        <trkpt lat="28.8302954" lon="105.2956889"><ele>397.89</ele><time>2025-12-26T23:45:39.000Z</time></trkpt>
        <trkpt lat="28.830333" lon="105.2955769"><ele>394.32</ele><time>2025-12-26T23:45:55.000Z</time></trkpt>
        <trkpt lat="28.8303737" lon="105.2954619"><ele>391</ele><time>2025-12-26T23:46:07.000Z</time></trkpt>
        <trkpt lat="28.8303729" lon="105.2953518"><ele>387.95</ele><time>2025-12-26T23:46:17.000Z</time></trkpt>
        <trkpt lat="28.8304013" lon="105.2952423"><ele>384.79</ele><time>2025-12-26T23:46:29.000Z</time></trkpt>
        <trkpt lat="28.8304535" lon="105.2951503"><ele>381.87</ele><time>2025-12-26T23:46:47.000Z</time></trkpt>
        <trkpt lat="28.8305326" lon="105.2950771"><ele>380.59</ele><time>2025-12-26T23:46:57.000Z</time></trkpt>
        <trkpt lat="28.8306148" lon="105.2950047"><ele>380.77</ele><time>2025-12-26T23:47:07.000Z</time></trkpt>
        <trkpt lat="28.8306746" lon="105.2949209"><ele>381.13</ele><time>2025-12-26T23:47:19.000Z</time></trkpt>
        <trkpt lat="28.830731" lon="105.2948271"><ele>380.99</ele><time>2025-12-26T23:47:31.000Z</time></trkpt>
        <trkpt lat="28.8308167" lon="105.2948325"><ele>380.43</ele><time>2025-12-26T23:47:43.000Z</time></trkpt>
        <trkpt lat="28.8309086" lon="105.2948548"><ele>379.21</ele><time>2025-12-26T23:47:59.000Z</time></trkpt>
        <trkpt lat="28.8310038" lon="105.2949031"><ele>378.26</ele><time>2025-12-26T23:48:15.000Z</time></trkpt>
        <trkpt lat="28.8310954" lon="105.2949711"><ele>376.3</ele><time>2025-12-26T23:48:29.000Z</time></trkpt>
        <trkpt lat="28.83119" lon="105.2949878"><ele>374.75</ele><time>2025-12-26T23:48:37.000Z</time></trkpt>
        <trkpt lat="28.8312805" lon="105.2949466"><ele>374.38</ele><time>2025-12-26T23:48:49.000Z</time></trkpt>
        <trkpt lat="28.8313654" lon="105.2948881"><ele>374.78</ele><time>2025-12-26T23:49:01.000Z</time></trkpt>
        <trkpt lat="28.8314534" lon="105.2948684"><ele>375.69</ele><time>2025-12-26T23:49:11.000Z</time></trkpt>
        <trkpt lat="28.8315442" lon="105.2948935"><ele>376.6</ele><time>2025-12-26T23:49:25.000Z</time></trkpt>
        <trkpt lat="28.8316359" lon="105.2949368"><ele>377.98</ele><time>2025-12-26T23:49:39.000Z</time></trkpt>
        <trkpt lat="28.8317141" lon="105.2950042"><ele>378.33</ele><time>2025-12-26T23:49:55.000Z</time></trkpt>
        <trkpt lat="28.8317997" lon="105.2950591"><ele>378.49</ele><time>2025-12-26T23:50:09.000Z</time></trkpt>
        <trkpt lat="28.831895" lon="105.2950717"><ele>378.97</ele><time>2025-12-26T23:50:25.000Z</time></trkpt>
        <trkpt lat="28.8319887" lon="105.2950582"><ele>378.16</ele><time>2025-12-26T23:50:41.000Z</time></trkpt>
        <trkpt lat="28.8320814" lon="105.2950083"><ele>377.06</ele><time>2025-12-26T23:50:53.000Z</time></trkpt>
        <trkpt lat="28.8321746" lon="105.294965"><ele>376.05</ele><time>2025-12-26T23:51:07.000Z</time></trkpt>
        <trkpt lat="28.832253" lon="105.2949037"><ele>374.43</ele><time>2025-12-26T23:51:25.000Z</time></trkpt>
        <trkpt lat="28.8323147" lon="105.2948247"><ele>371.8</ele><time>2025-12-26T23:51:41.000Z</time></trkpt>
        <trkpt lat="28.8323873" lon="105.2947397"><ele>368.79</ele><time>2025-12-26T23:51:59.000Z</time></trkpt>
        <trkpt lat="28.832459" lon="105.2946669"><ele>365.01</ele><time>2025-12-26T23:52:19.000Z</time></trkpt>
        <trkpt lat="28.8325329" lon="105.2946011"><ele>361.65</ele><time>2025-12-26T23:52:35.000Z</time></trkpt>
        <trkpt lat="28.8326241" lon="105.2945705"><ele>358.92</ele><time>2025-12-26T23:52:55.000Z</time></trkpt>
        <trkpt lat="28.8326689" lon="105.2944835"><ele>356.85</ele><time>2025-12-26T23:53:33.000Z</time></trkpt>
        <trkpt lat="28.8326582" lon="105.2943625"><ele>355.66</ele><time>2025-12-26T23:53:51.000Z</time></trkpt>
        <trkpt lat="28.8326605" lon="105.2942449"><ele>354.13</ele><time>2025-12-26T23:54:03.000Z</time></trkpt>
        <trkpt lat="28.8326542" lon="105.2941163"><ele>351.32</ele><time>2025-12-26T23:54:15.000Z</time></trkpt>
        <trkpt lat="28.8327038" lon="105.2940177"><ele>348.9</ele><time>2025-12-26T23:54:27.000Z</time></trkpt>
        <trkpt lat="28.8327175" lon="105.2939914"><ele>346.67</ele><time>2025-12-26T23:54:35.000Z</time></trkpt>
        <trkpt lat="28.8327695" lon="105.293928"><ele>345.43</ele><time>2025-12-26T23:54:53.000Z</time></trkpt>
        <trkpt lat="28.8327937" lon="105.2938315"><ele>343.65</ele><time>2025-12-26T23:55:07.000Z</time></trkpt>
        <trkpt lat="28.8327771" lon="105.2937127"><ele>343.76</ele><time>2025-12-26T23:55:15.000Z</time></trkpt>
        <trkpt lat="28.8327112" lon="105.2936311"><ele>344.16</ele><time>2025-12-26T23:55:35.000Z</time></trkpt>
        <trkpt lat="28.8326148" lon="105.2936203"><ele>342.85</ele><time>2025-12-26T23:55:45.000Z</time></trkpt>
        <trkpt lat="28.8325183" lon="105.2935767"><ele>341.49</ele><time>2025-12-26T23:56:55.000Z</time></trkpt>
        <trkpt lat="28.8325367" lon="105.293475"><ele>339.9</ele><time>2025-12-26T23:57:07.000Z</time></trkpt>
        <trkpt lat="28.8325296" lon="105.2933677"><ele>339.21</ele><time>2025-12-26T23:57:17.000Z</time></trkpt>
        <trkpt lat="28.832567" lon="105.293271"><ele>337.53</ele><time>2025-12-26T23:57:31.000Z</time></trkpt>
        <trkpt lat="28.8326306" lon="105.2931913"><ele>335.32</ele><time>2025-12-26T23:57:41.000Z</time></trkpt>
        <trkpt lat="28.8327139" lon="105.2931438"><ele>333.64</ele><time>2025-12-26T23:57:51.000Z</time></trkpt>
        <trkpt lat="28.8328124" lon="105.2931121"><ele>332.16</ele><time>2025-12-26T23:58:05.000Z</time></trkpt>
        <trkpt lat="28.8328876" lon="105.2930399"><ele>330.54</ele><time>2025-12-26T23:58:21.000Z</time></trkpt>
        <trkpt lat="28.8328835" lon="105.2929407"><ele>327.51</ele><time>2025-12-26T23:58:33.000Z</time></trkpt>
        <trkpt lat="28.8328279" lon="105.2928466"><ele>325.14</ele><time>2025-12-26T23:58:45.000Z</time></trkpt>
        <trkpt lat="28.8327492" lon="105.2927638"><ele>322.5</ele><time>2025-12-26T23:58:59.000Z</time></trkpt>
        <trkpt lat="28.8326648" lon="105.2926911"><ele>319.57</ele><time>2025-12-26T23:59:09.000Z</time></trkpt>
        <trkpt lat="28.8325709" lon="105.2926243"><ele>317.09</ele><time>2025-12-26T23:59:19.000Z</time></trkpt>
        <trkpt lat="28.8324912" lon="105.2925377"><ele>314.56</ele><time>2025-12-26T23:59:31.000Z</time></trkpt>
        <trkpt lat="28.8324346" lon="105.2924495"><ele>313.5</ele><time>2025-12-26T23:59:45.000Z</time></trkpt>
        <trkpt lat="28.8323729" lon="105.2923527"><ele>312.21</ele><time>2025-12-26T23:59:59.000Z</time></trkpt>
        <trkpt lat="28.8323471" lon="105.2922507"><ele>312.42</ele><time>2025-12-27T00:00:37.000Z</time></trkpt>
        <trkpt lat="28.8324128" lon="105.2921939"><ele>312.37</ele><time>2025-12-27T00:00:51.000Z</time></trkpt>
        <trkpt lat="28.8325074" lon="105.2922243"><ele>311.56</ele><time>2025-12-27T00:01:01.000Z</time></trkpt>
        <trkpt lat="28.8326226" lon="105.2922532"><ele>311.28</ele><time>2025-12-27T00:01:11.000Z</time></trkpt>
        <trkpt lat="28.8327356" lon="105.2922519"><ele>310.77</ele><time>2025-12-27T00:01:19.000Z</time></trkpt>
        <trkpt lat="28.8328051" lon="105.2921839"><ele>309.67</ele><time>2025-12-27T00:01:27.000Z</time></trkpt>
        <trkpt lat="28.8328357" lon="105.292079"><ele>308.56</ele><time>2025-12-27T00:01:37.000Z</time></trkpt>
        <trkpt lat="28.832846" lon="105.291963"><ele>307.63</ele><time>2025-12-27T00:01:47.000Z</time></trkpt>
        <trkpt lat="28.8328116" lon="105.2918445"><ele>305.51</ele><time>2025-12-27T00:01:59.000Z</time></trkpt>
        <trkpt lat="28.8327347" lon="105.2917629"><ele>303.83</ele><time>2025-12-27T00:02:07.000Z</time></trkpt>
        <trkpt lat="28.832655" lon="105.2916862"><ele>302.14</ele><time>2025-12-27T00:02:19.000Z</time></trkpt>
        <trkpt lat="28.8325697" lon="105.2916152"><ele>299.93</ele><time>2025-12-27T00:02:33.000Z</time></trkpt>
        <trkpt lat="28.8324913" lon="105.2915454"><ele>297.38</ele><time>2025-12-27T00:02:43.000Z</time></trkpt>
        <trkpt lat="28.8324194" lon="105.291464"><ele>295.88</ele><time>2025-12-27T00:02:53.000Z</time></trkpt>
        <trkpt lat="28.8323717" lon="105.2913615"><ele>294.51</ele><time>2025-12-27T00:03:05.000Z</time></trkpt>
        <trkpt lat="28.832364" lon="105.2912355"><ele>293.26</ele><time>2025-12-27T00:03:17.000Z</time></trkpt>
        <trkpt lat="28.8323733" lon="105.2911197"><ele>292.8</ele><time>2025-12-27T00:03:29.000Z</time></trkpt>
        <trkpt lat="28.8323985" lon="105.2909897"><ele>291.47</ele><time>2025-12-27T00:03:41.000Z</time></trkpt>
        <trkpt lat="28.8324632" lon="105.2909"><ele>289.89</ele><time>2025-12-27T00:03:55.000Z</time></trkpt>
        <trkpt lat="28.8325528" lon="105.2908349"><ele>288.26</ele><time>2025-12-27T00:04:07.000Z</time></trkpt>
        <trkpt lat="28.8326531" lon="105.2908197"><ele>287.24</ele><time>2025-12-27T00:04:17.000Z</time></trkpt>
        <trkpt lat="28.8327655" lon="105.2907967"><ele>286.24</ele><time>2025-12-27T00:04:27.000Z</time></trkpt>
        <trkpt lat="28.8328712" lon="105.2907657"><ele>285.53</ele><time>2025-12-27T00:04:39.000Z</time></trkpt>
        <trkpt lat="28.8329515" lon="105.2906825"><ele>283.63</ele><time>2025-12-27T00:04:49.000Z</time></trkpt>
        <trkpt lat="28.8329979" lon="105.2905811"><ele>282.07</ele><time>2025-12-27T00:04:59.000Z</time></trkpt>
        <trkpt lat="28.8329768" lon="105.2904632"><ele>281.18</ele><time>2025-12-27T00:05:09.000Z</time></trkpt>
        <trkpt lat="28.8329183" lon="105.2903553"><ele>280.24</ele><time>2025-12-27T00:05:25.000Z</time></trkpt>
        <trkpt lat="28.8329183" lon="105.2903553"><ele>280.24</ele><time>2025-12-27T00:05:28.000Z</time></trkpt>
        <trkpt lat="28.8329183" lon="105.2903553"><ele>280.24</ele><time>2025-12-27T00:05:31.000Z</time></trkpt>
        <trkpt lat="28.8329183" lon="105.2903553"><ele>280.24</ele><time>2025-12-27T00:05:34.000Z</time></trkpt>
      </trkseg>
  </trk>
</gpx>